メインページ
METAR-TAF:

METAR-TAF

空港 :

アンリ・コアンダ国際空港

ブカレスト, ルーマニア

緯度: 44-33N, 経度: 026-06E, 海抜: 95m

現時点の気象観測

当レポートは26分前の05:00(UTC)に作成
の風 3kt、北西から北/北東の間で変化する
気温 5°C
湿度 81%
気圧 1017 hPa
視程: 9000m

METAR: LROP 040500Z 36003KT 320V030 9000 NSC 05/02 Q1017 NOSIG

時間: 08:26 (05:26 UTC)

予報

当レポートは6時間26分前の23:00(UTC)に作成
予報は04日の 00時(UTC)から 04日の 24時(UTC)まで有効
変向風 4kt
視程10km以上
1,500メートル以下は雲なし、積乱雲なし
04日の 05時(UTC)から 04日の 07時(UTC)まで徐々に
東/北東の風 12kt

TAF: LROP 032300Z 0400/0424 VRB04KT CAVOK BECMG 0405/0407 07012KT

4,000以上の空港の気象観測と天気予報(METAR報とTAF報)

利用可能な観測所は地図上に黄色い丸と赤い丸で示す。

丸の上にカーソルを重ねると観測所名を参照できる。

次にクリックすると気象観測と天気予報を参照できる。

マップの切り替え:黒色「×」印の緑ボタンをクリックして拡大、「-」印の緑ボタンをクリックして縮小、緑色の三角印をクリックして隣りの地図に切り替え


METAR-TAF: